Time,TemperatureF,DewpointF,PressureIn,WindDirection,WindDirectionDegrees,WindSpeedMPH,WindSpeedGustMPH,Humidity,HourlyPrecipIn,Conditions,Clouds,dailyrainin,SolarRadiationWatts/m^2,SoftwareType,DateUTC
2013-10-21 00:00:00,80.4,74.8,29.96,SSE,155,0.0,2.0,83,0.00,,,0.00,0.0,meteohub,2013-10-21 04:00:00,
2013-10-21 00:01:00,80.4,74.8,29.95,SSE,155,1.0,2.0,83,0.00,,,0.00,0.0,meteohub,2013-10-21 04:01:00,
2013-10-21 00:02:00,80.4,74.8,29.95,SSE,155,1.0,2.0,83,0.00,,,0.00,0.0,meteohub,2013-10-21 04:02:00,
2013-10-21 00:07:00,80.4,74.8,29.95,SSE,155,1.0,2.0,83,0.00,,,0.00,0.0,meteohub,2013-10-21 04:07:00,
2013-10-21 00:12:00,80.2,74.7,29.95,SSE,155,1.0,3.0,83,0.00,,,0.00,0.0,meteohub,2013-10-21 04:12:00,
2013-10-21 00:17:00,80.2,74.7,29.95,SSE,155,1.0,3.0,83,0.00,,,0.00,0.0,meteohub,2013-10-21 04:17:00,
2013-10-21 00:22:00,80.1,74.5,29.95,SSE,156,2.0,3.0,83,0.00,,,0.00,0.0,meteohub,2013-10-21 04:22:00,
2013-10-21 00:27:00,80.1,74.5,29.95,SSE,156,1.0,3.0,83,0.00,,,0.00,0.0,meteohub,2013-10-21 04:27:00,
2013-10-21 00:32:00,79.9,74.3,29.94,SSE,156,1.0,4.0,83,0.00,,,0.00,0.0,meteohub,2013-10-21 04:32:00,
2013-10-21 00:37:00,79.7,74.1,29.94,SSE,155,1.0,4.0,83,0.00,,,0.00,0.0,meteohub,2013-10-21 04:37:00,
2013-10-21 00:42:00,79.5,73.9,29.94,SSE,156,2.0,4.0,83,0.00,,,0.00,0.0,meteohub,2013-10-21 04:42:00,
2013-10-21 00:47:00,79.5,73.9,29.94,SSE,155,1.0,3.0,83,0.00,,,0.00,0.0,meteohub,2013-10-21 04:47:00,
2013-10-21 00:52:00,79.5,73.9,29.94,SSE,153,3.0,4.0,83,0.00,,,0.00,0.0,meteohub,2013-10-21 04:52:00,
2013-10-21 00:57:00,79.5,73.9,29.94,SSE,148,2.0,4.0,83,0.00,,,0.00,0.0,meteohub,2013-10-21 04:57:00,
2013-10-21 01:02:00,79.3,73.8,29.94,SSE,148,0.0,4.0,83,0.00,,,0.00,0.0,meteohub,2013-10-21 05:02:00,
2013-10-21 01:07:00,79.3,74.1,29.94,SSE,147,2.0,3.0,84,0.00,,,0.00,0.0,meteohub,2013-10-21 05:07:00,
2013-10-21 01:12:00,79.3,74.1,29.94,SSE,147,0.0,3.0,84,0.00,,,0.00,0.0,meteohub,2013-10-21 05:12:00,
2013-10-21 01:17:00,79.3,74.1,29.94,SSE,148,2.0,3.0,84,0.00,,,0.00,0.0,meteohub,2013-10-21 05:17:00,
2013-10-21 01:22:00,79.2,73.9,29.94,SSE,148,2.0,3.0,84,0.00,,,0.00,0.0,meteohub,2013-10-21 05:22:00,
2013-10-21 01:27:00,79.2,74.3,29.94,SSE,148,1.0,3.0,85,0.00,,,0.00,0.0,meteohub,2013-10-21 05:27:00,
2013-10-21 01:32:00,79.2,74.3,29.94,SSE,148,2.0,3.0,85,0.00,,,0.00,0.0,meteohub,2013-10-21 05:32:00,
2013-10-21 01:37:00,79.2,74.3,29.94,SSE,148,0.0,3.0,85,0.00,,,0.00,0.0,meteohub,2013-10-21 05:37:00,
2013-10-21 01:42:00,79.0,74.5,29.94,SSE,148,0.0,2.0,86,0.00,,,0.00,0.0,meteohub,2013-10-21 05:42:00,
2013-10-21 01:47:00,79.0,74.5,29.94,SSE,148,0.0,2.0,86,0.00,,,0.00,0.0,meteohub,2013-10-21 05:47:00,
2013-10-21 01:52:00,79.0,74.5,29.93,SSE,148,0.0,1.0,86,0.00,,,0.00,0.0,meteohub,2013-10-21 05:52:00,
2013-10-21 01:57:00,78.8,74.3,29.93,SSE,148,1.0,1.0,86,0.00,,,0.00,0.0,meteohub,2013-10-21 05:57:00,
2013-10-21 02:02:00,78.6,74.5,29.93,SSE,148,1.0,1.0,87,0.00,,,0.00,0.0,meteohub,2013-10-21 06:02:00,
2013-10-21 02:07:00,78.4,74.3,29.93,SSE,148,0.0,2.0,87,0.00,,,0.00,0.0,meteohub,2013-10-21 06:07:00,
2013-10-21 02:12:00,78.4,74.3,29.93,SSE,148,0.0,2.0,87,0.00,,,0.00,0.0,meteohub,2013-10-21 06:12:00,
2013-10-21 02:17:00,78.4,74.3,29.93,SSE,148,0.0,2.0,87,0.00,,,0.00,0.0,meteohub,2013-10-21 06:17:00,
2013-10-21 02:22:00,78.3,74.1,29.93,SSE,148,0.0,0.0,87,0.00,,,0.00,0.0,meteohub,2013-10-21 06:22:00,
2013-10-21 02:27:00,78.3,74.1,29.93,SSE,148,0.0,0.0,87,0.00,,,0.00,0.0,meteohub,2013-10-21 06:27:00,
2013-10-21 02:32:00,78.3,74.5,29.93,SSE,148,0.0,0.0,88,0.00,,,0.00,0.0,meteohub,2013-10-21 06:32:00,
2013-10-21 02:37:00,78.3,74.5,29.93,SSE,148,0.0,0.0,88,0.00,,,0.00,0.0,meteohub,2013-10-21 06:37:00,
2013-10-21 02:42:00,78.1,74.3,29.93,SSE,148,0.0,0.0,88,0.00,,,0.00,0.0,meteohub,2013-10-21 06:42:00,
2013-10-21 02:47:00,77.7,73.9,29.93,SSE,148,0.0,0.0,88,0.00,,,0.00,0.0,meteohub,2013-10-21 06:47:00,
2013-10-21 02:52:00,77.7,74.3,29.93,SSE,148,0.0,0.0,89,0.00,,,0.00,0.0,meteohub,2013-10-21 06:52:00,
2013-10-21 02:57:00,77.5,74.1,29.93,SSE,148,0.0,0.0,89,0.00,,,0.00,0.0,meteohub,2013-10-21 06:57:00,
2013-10-21 03:02:00,77.4,74.1,29.93,SSE,148,0.0,0.0,90,0.00,,,0.00,0.0,meteohub,2013-10-21 07:02:00,
2013-10-21 03:07:00,77.4,74.1,29.92,SSE,148,0.0,0.0,90,0.00,,,0.00,0.0,meteohub,2013-10-21 07:07:00,
2013-10-21 03:12:00,77.4,74.1,29.92,SSE,148,0.0,0.0,90,0.00,,,0.00,0.0,meteohub,2013-10-21 07:12:00,
2013-10-21 03:17:00,77.2,74.3,29.92,SSE,148,0.0,0.0,91,0.00,,,0.00,0.0,meteohub,2013-10-21 07:17:00,
2013-10-21 03:22:00,77.2,74.3,29.93,SSE,147,0.0,0.0,91,0.00,,,0.00,0.0,meteohub,2013-10-21 07:22:00,
2013-10-21 03:27:00,77.2,74.3,29.93,SSE,147,0.0,0.0,91,0.00,,,0.00,0.0,meteohub,2013-10-21 07:27:00,
2013-10-21 03:32:00,77.2,74.3,29.92,SSE,148,0.0,0.0,91,0.00,,,0.00,0.0,meteohub,2013-10-21 07:32:00,
2013-10-21 03:37:00,77.2,74.3,29.93,SSE,148,0.0,0.0,91,0.00,,,0.00,0.0,meteohub,2013-10-21 07:37:00,
2013-10-21 03:42:00,77.2,74.7,29.93,SSE,148,0.0,0.0,92,0.00,,,0.00,0.0,meteohub,2013-10-21 07:42:00,
2013-10-21 03:47:00,77.0,74.5,29.93,SSE,148,0.0,0.0,92,0.00,,,0.00,0.0,meteohub,2013-10-21 07:47:00,
2013-10-21 03:52:00,76.8,74.3,29.93,SSE,148,0.0,0.0,92,0.00,,,0.00,0.0,meteohub,2013-10-21 07:52:00,
2013-10-21 03:57:00,76.8,74.3,29.93,SSE,148,0.0,0.0,92,0.00,,,0.00,0.0,meteohub,2013-10-21 07:57:00,
2013-10-21 04:02:00,76.8,74.3,29.93,SSE,147,0.0,0.0,92,0.00,,,0.00,0.0,meteohub,2013-10-21 08:02:00,
2013-10-21 04:07:00,76.8,74.3,29.93,SSE,148,0.0,0.0,92,0.00,,,0.00,0.0,meteohub,2013-10-21 08:07:00,
2013-10-21 04:12:00,76.8,74.3,29.93,SSE,148,0.0,0.0,92,0.00,,,0.00,0.0,meteohub,2013-10-21 08:12:00,
2013-10-21 04:17:00,76.6,74.1,29.94,SSE,148,0.0,0.0,92,0.00,,,0.00,0.0,meteohub,2013-10-21 08:17:00,
2013-10-21 04:22:00,76.6,74.1,29.94,SSE,148,0.0,0.0,92,0.00,,,0.00,0.0,meteohub,2013-10-21 08:22:00,
2013-10-21 04:27:00,76.6,74.1,29.94,SSE,148,0.0,0.0,92,0.00,,,0.00,0.0,meteohub,2013-10-21 08:27:00,
2013-10-21 04:32:00,76.6,74.1,29.94,SSE,148,0.0,0.0,92,0.00,,,0.00,0.0,meteohub,2013-10-21 08:32:00,
2013-10-21 04:37:00,76.5,73.9,29.93,SSE,148,0.0,0.0,92,0.00,,,0.00,0.0,meteohub,2013-10-21 08:37:00,
2013-10-21 04:42:00,76.3,73.8,29.93,SSE,148,0.0,0.0,92,0.00,,,0.00,0.0,meteohub,2013-10-21 08:42:00,
2013-10-21 04:47:00,76.3,73.8,29.93,SSE,148,0.0,0.0,92,0.00,,,0.00,0.0,meteohub,2013-10-21 08:47:00,
2013-10-21 04:52:00,76.3,74.1,29.94,SSE,148,0.0,0.0,93,0.00,,,0.00,0.0,meteohub,2013-10-21 08:52:00,
2013-10-21 04:57:00,76.3,74.1,29.94,SSE,148,0.0,0.0,93,0.00,,,0.00,0.0,meteohub,2013-10-21 08:57:00,
2013-10-21 05:02:00,76.3,74.1,29.94,SSE,148,0.0,0.0,93,0.00,,,0.00,0.0,meteohub,2013-10-21 09:02:00,
2013-10-21 05:07:00,76.3,74.1,29.94,SSE,148,0.0,0.0,93,0.00,,,0.00,0.0,meteohub,2013-10-21 09:07:00,
2013-10-21 05:12:00,76.1,73.9,29.94,SSE,148,0.0,0.0,93,0.00,,,0.00,0.0,meteohub,2013-10-21 09:12:00,
2013-10-21 05:17:00,76.3,74.1,29.94,SSE,148,0.0,0.0,93,0.00,,,0.00,0.0,meteohub,2013-10-21 09:17:00,
2013-10-21 05:22:00,76.1,73.9,29.94,SSE,148,0.0,0.0,93,0.00,,,0.00,0.0,meteohub,2013-10-21 09:22:00,
2013-10-21 05:27:00,76.1,73.9,29.94,SSE,148,0.0,0.0,93,0.00,,,0.00,0.0,meteohub,2013-10-21 09:27:00,
2013-10-21 05:32:00,75.9,73.8,29.94,SSE,148,0.0,0.0,93,0.00,,,0.00,0.0,meteohub,2013-10-21 09:32:00,
2013-10-21 05:37:00,75.9,73.8,29.94,SSE,148,0.0,0.0,93,0.00,,,0.00,0.0,meteohub,2013-10-21 09:37:00,
2013-10-21 05:41:00,75.9,74.1,29.94,SSE,148,0.0,0.0,94,0.00,,,0.00,0.0,meteohub,2013-10-21 09:41:00,
2013-10-21 05:47:00,75.9,74.1,29.94,SSE,147,0.0,0.0,94,0.00,,,0.00,0.0,meteohub,2013-10-21 09:47:00,
2013-10-21 05:52:00,75.9,74.1,29.94,SSE,148,0.0,0.0,94,0.00,,,0.00,0.0,meteohub,2013-10-21 09:52:00,
2013-10-21 05:57:00,75.9,74.1,29.95,SSE,148,0.0,0.0,94,0.00,,,0.00,0.0,meteohub,2013-10-21 09:57:00,
2013-10-21 06:02:00,75.9,74.1,29.95,SSE,147,0.0,0.0,94,0.00,,,0.00,0.0,meteohub,2013-10-21 10:02:00,
2013-10-21 06:07:00,76.1,74.3,29.95,SSE,147,0.0,0.0,94,0.00,,,0.00,0.0,meteohub,2013-10-21 10:07:00,
2013-10-21 06:12:00,76.1,74.3,29.95,SSE,147,0.0,0.0,94,0.00,,,0.00,0.0,meteohub,2013-10-21 10:12:00,
2013-10-21 06:17:00,76.1,74.3,29.95,SSE,147,0.0,0.0,94,0.00,,,0.00,0.0,meteohub,2013-10-21 10:17:00,
2013-10-21 06:22:00,76.3,74.5,29.96,SSE,148,0.0,0.0,94,0.00,,,0.00,0.0,meteohub,2013-10-21 10:22:00,
2013-10-21 06:27:00,76.3,74.5,29.96,SSE,147,0.0,0.0,94,0.00,,,0.00,0.0,meteohub,2013-10-21 10:27:00,
2013-10-21 06:32:00,76.3,74.5,29.96,SSE,148,0.0,0.0,94,0.00,,,0.00,0.0,meteohub,2013-10-21 10:32:00,
2013-10-21 06:37:00,76.3,74.5,29.96,SSE,148,0.0,0.0,94,0.00,,,0.00,0.0,meteohub,2013-10-21 10:37:00,
2013-10-21 06:42:00,76.3,74.5,29.96,SSE,147,0.0,0.0,94,0.00,,,0.00,0.0,meteohub,2013-10-21 10:42:00,
2013-10-21 06:47:00,76.3,74.7,29.96,SSE,147,0.0,1.0,95,0.00,,,0.00,0.0,meteohub,2013-10-21 10:47:00,
2013-10-21 06:52:00,76.5,74.8,29.96,SSE,148,0.0,1.0,95,0.00,,,0.00,0.0,meteohub,2013-10-21 10:52:00,
2013-10-21 06:57:00,76.5,74.8,29.96,SSE,148,0.0,1.0,95,0.00,,,0.00,0.0,meteohub,2013-10-21 10:57:00,
2013-10-21 07:02:00,76.5,74.8,29.96,SE,126,0.0,0.0,95,0.00,,,0.00,0.0,meteohub,2013-10-21 11:02:00,
2013-10-21 07:07:00,76.5,74.8,29.96,SE,126,0.0,0.0,95,0.00,,,0.00,0.0,meteohub,2013-10-21 11:07:00,
2013-10-21 07:12:00,76.5,74.8,29.96,SE,126,0.0,0.0,95,0.00,,,0.00,0.0,meteohub,2013-10-21 11:12:00,
2013-10-21 07:17:00,76.5,74.8,29.97,SE,126,2.0,0.0,95,0.00,,,0.00,0.0,meteohub,2013-10-21 11:17:00,
2013-10-21 07:22:00,76.6,75.0,29.97,SE,126,1.0,2.0,95,0.00,,,0.00,0.0,meteohub,2013-10-21 11:22:00,
2013-10-21 07:27:00,76.6,75.0,29.97,West,263,1.0,2.0,95,0.00,,,0.00,7.0,meteohub,2013-10-21 11:27:00,
2013-10-21 07:32:00,76.6,75.0,29.97,WNW,289,0.0,2.0,95,0.00,,,0.00,12.0,meteohub,2013-10-21 11:32:00,
2013-10-21 07:37:00,76.6,75.0,29.97,WNW,289,0.0,2.0,95,0.00,,,0.00,16.0,meteohub,2013-10-21 11:37:00,
2013-10-21 07:42:00,76.6,75.0,29.97,WNW,289,0.0,1.0,95,0.00,,,0.00,28.0,meteohub,2013-10-21 11:42:00,
2013-10-21 07:47:00,76.6,75.0,29.97,WNW,289,0.0,0.0,95,0.00,,,0.00,46.0,meteohub,2013-10-21 11:47:00,
2013-10-21 07:52:00,76.8,75.2,29.97,SSW,208,10.0,0.0,95,0.00,,,0.00,65.0,meteohub,2013-10-21 11:52:00,
2013-10-21 07:57:00,77.2,75.6,29.97,SSW,192,4.0,10.0,95,0.00,,,0.00,65.0,meteohub,2013-10-21 11:57:00,
2013-10-21 08:02:00,77.5,75.9,29.97,SSW,195,4.0,10.0,95,0.00,,,0.00,60.0,meteohub,2013-10-21 12:02:00,
2013-10-21 08:07:00,77.7,76.1,29.97,SW,225,3.0,10.0,95,0.00,,,0.00,111.0,meteohub,2013-10-21 12:07:00,
2013-10-21 08:12:00,78.1,76.3,29.97,SW,225,0.0,6.0,94,0.00,,,0.00,121.0,meteohub,2013-10-21 12:12:00,
2013-10-21 08:17:00,78.4,76.6,29.97,SW,225,0.0,5.0,94,0.00,,,0.00,144.0,meteohub,2013-10-21 12:17:00,
2013-10-21 08:22:00,79.0,76.5,29.97,SW,225,0.0,3.0,92,0.00,,,0.00,146.0,meteohub,2013-10-21 12:22:00,
2013-10-21 08:27:00,79.5,76.3,29.97,SW,219,0.0,3.0,90,0.00,,,0.00,181.0,meteohub,2013-10-21 12:27:00,
2013-10-21 08:32:00,80.4,76.5,29.98,SE,136,0.0,0.0,88,0.00,,,0.00,192.0,meteohub,2013-10-21 12:32:00,
2013-10-21 08:37:00,81.1,76.5,29.98,SE,143,1.0,0.0,86,0.00,,,0.00,148.0,meteohub,2013-10-21 12:37:00,
2013-10-21 08:42:00,81.7,76.6,29.98,SSE,159,3.0,5.0,85,0.00,,,0.00,244.0,meteohub,2013-10-21 12:42:00,
2013-10-21 08:47:00,82.0,76.6,29.98,SSE,161,3.0,5.0,84,0.00,,,0.00,257.0,meteohub,2013-10-21 12:47:00,
2013-10-21 08:52:00,82.4,76.6,29.97,SE,138,4.0,5.0,83,0.00,,,0.00,171.0,meteohub,2013-10-21 12:52:00,
2013-10-21 08:57:00,82.6,76.8,29.98,SE,131,4.0,8.0,83,0.00,,,0.00,269.0,meteohub,2013-10-21 12:57:00,
2013-10-21 09:02:00,82.8,77.0,29.98,SSE,148,3.0,8.0,83,0.00,,,0.00,243.0,meteohub,2013-10-21 13:02:00,
2013-10-21 09:07:00,82.6,76.5,29.98,SE,139,2.0,8.0,82,0.00,,,0.00,137.0,meteohub,2013-10-21 13:07:00,
2013-10-21 09:12:00,82.8,77.0,29.98,SSE,152,3.0,8.0,83,0.00,,,0.00,279.0,meteohub,2013-10-21 13:12:00,
2013-10-21 09:17:00,82.9,77.2,29.98,SSE,160,2.0,6.0,83,0.00,,,0.00,283.0,meteohub,2013-10-21 13:17:00,
2013-10-21 09:22:00,83.1,77.0,29.98,South,172,4.0,6.0,82,0.00,,,0.00,302.0,meteohub,2013-10-21 13:22:00,
2013-10-21 09:27:00,83.5,77.4,29.98,SSE,165,4.0,9.0,82,0.00,,,0.00,318.0,meteohub,2013-10-21 13:27:00,
2013-10-21 09:32:00,83.7,77.2,29.99,SSW,193,4.0,9.0,81,0.00,,,0.00,329.0,meteohub,2013-10-21 13:32:00,
2013-10-21 09:37:00,83.8,77.4,29.99,SE,127,3.0,9.0,81,0.00,,,0.00,346.0,meteohub,2013-10-21 13:37:00,
2013-10-21 09:42:00,84.4,77.5,29.99,SE,128,2.0,7.0,80,0.00,,,0.00,369.0,meteohub,2013-10-21 13:42:00,
2013-10-21 09:47:00,84.2,77.0,29.99,SSE,165,2.0,7.0,79,0.00,,,0.00,399.0,meteohub,2013-10-21 13:47:00,
2013-10-21 09:52:00,84.2,77.0,29.99,SE,132,5.0,7.0,79,0.00,,,0.00,120.0,meteohub,2013-10-21 13:52:00,
2013-10-21 09:57:00,84.0,76.8,29.99,SE,137,7.0,7.0,79,0.00,,,0.00,452.0,meteohub,2013-10-21 13:57:00,
2013-10-21 10:02:00,84.6,76.5,29.99,South,169,4.0,7.0,77,0.00,,,0.00,371.0,meteohub,2013-10-21 14:02:00,
2013-10-21 10:07:00,84.7,75.6,29.99,SSE,161,4.0,8.0,74,0.00,,,0.00,464.0,meteohub,2013-10-21 14:07:00,
2013-10-21 10:12:00,85.3,76.5,29.99,South,169,3.0,8.0,75,0.00,,,0.00,461.0,meteohub,2013-10-21 14:12:00,
2013-10-21 10:17:00,85.1,76.6,29.99,SE,144,5.0,8.0,76,0.00,,,0.00,77.0,meteohub,2013-10-21 14:17:00,
2013-10-21 10:22:00,84.0,76.1,29.99,SSE,150,4.0,8.0,77,0.00,,,0.00,95.0,meteohub,2013-10-21 14:22:00,
2013-10-21 10:27:00,83.8,76.6,29.99,SSE,163,3.0,8.0,79,0.00,,,0.00,88.0,meteohub,2013-10-21 14:27:00,
2013-10-21 10:32:00,83.8,76.6,29.99,South,177,3.0,8.0,79,0.00,,,0.00,116.0,meteohub,2013-10-21 14:32:00,
2013-10-21 10:37:00,85.3,77.2,29.99,SE,132,5.0,6.0,77,0.00,,,0.00,589.0,meteohub,2013-10-21 14:37:00,
2013-10-21 10:42:00,86.2,76.5,29.99,SSE,155,3.0,8.0,73,0.00,,,0.00,605.0,meteohub,2013-10-21 14:42:00,
2013-10-21 10:47:00,86.4,76.3,29.99,SSW,198,5.0,9.0,72,0.00,,,0.00,661.0,meteohub,2013-10-21 14:47:00,